KHHV

Hoover Diana

Hoover Diana, Texas, USA
METAR KHHV 242000Z AUTO 18021KT 10SM SCT015 BKN022 25/23 A2992 RMK A01
Observed Flight Rules
Feb-24 @ 20:00 UTC (14 minutes ago) Marginal Visual Flight Rules
Wind Visibility Clouds
180° at 21 knots 10 miles
  • Scattered at 1,500' AGL
  • Broken at 2,200' AGL
Temperatures Readings
Current 25°C / 77°F
Dewpoint 23°C / 73°F
Humidity 89%
Altimeter 29.92" Hg
Pressure 1013 hPa
Elevation 25
METAR KHHV 242000Z AUTO 18021KT 10SM SCT015 BKN022 25/23 A2992 RMK A01
Observed Flight Rules
Feb-24 @ 20:00 UTC
(14 minutes ago)
MVFR
Wind Visibility
180° at 21 knots 10 miles
Clouds
  • Scattered at 1,500' AGL
  • Broken at 2,200' AGL
Temperature Dewpoint
25°C / 77°F 23°C / 73°F
Humidity Altimeter Pressure
89% 29.92" Hg 1013 hPa